Time;durP1;ratioP1;P1;durP2;ratioP2;P2;SDS_P1;SDS_P2;PMS_P1;PMS_P2;Temp;Humidity;BMP_temperature;BMP_pressure;BME280_temperature;BME280_humidity;BME280_pressure;Samples;Min_cycle;Max_cycle;Signal;HPM_P1;HPM_P2
2022/01/18 00:00:49;;;;;;;8.48;1.70;;;;;;;1.19;66.58;101430.16;5588187;31;34167;-69
2022/01/18 00:03:52;;;;;;;10.65;1.70;;;;;;;1.11;67.49;101437.56;5588033;31;34641;-69
2022/01/18 00:06:55;;;;;;;9.60;1.85;;;;;;;1.14;66.88;101442.63;5588016;31;34677;-70
2022/01/18 00:10:03;;;;;;;7.15;1.50;;;;;;;1.07;67.50;101445.62;5588006;31;34101;-68
2022/01/18 00:19:40;;;;;;;8.30;1.60;;;;;;;1.05;67.77;101450.97;5563478;31;35444;-72
2022/01/18 00:22:43;;;;;;;8.43;1.95;;;;;;;0.99;67.98;101450.44;5587847;31;34123;-71
2022/01/18 00:25:50;;;;;;;9.50;2.05;;;;;;;1.16;66.74;101447.78;5588145;31;34266;-70
2022/01/18 00:28:58;;;;;;;7.72;1.77;;;;;;;1.12;66.81;101449.69;5587653;31;34831;-71
2022/01/18 00:32:18;;;;;;;4.80;1.40;;;;;;;1.05;67.84;101458.78;5587674;31;34272;-71
2022/01/18 00:35:21;;;;;;;4.97;1.50;;;;;;;1.00;68.03;101458.19;5588237;31;34910;-71
2022/01/18 00:41:33;;;;;;;2.97;1.30;;;;;;;0.96;67.54;101485.41;5590579;31;34147;-70
2022/01/18 00:44:36;;;;;;;4.12;1.67;;;;;;;0.93;68.31;101492.53;5590413;31;35600;-70
2022/01/18 00:47:39;;;;;;;5.68;1.62;;;;;;;0.81;69.29;101492.28;5589695;31;34367;-70
2022/01/18 00:50:42;;;;;;;9.32;1.77;;;;;;;0.74;69.24;101500.47;5590540;31;34178;-72
2022/01/18 00:53:46;;;;;;;4.80;1.58;;;;;;;0.68;69.65;101516.44;5590216;31;34176;-71
2022/01/18 00:56:51;;;;;;;9.55;2.17;;;;;;;0.69;69.53;101524.22;5590332;31;34294;-72
2022/01/18 00:59:54;;;;;;;4.82;1.80;;;;;;;0.66;69.67;101527.00;5590405;31;35164;-71
2022/01/18 01:02:57;;;;;;;4.22;1.58;;;;;;;0.59;70.26;101519.53;5590268;31;34871;-70
2022/01/18 01:06:03;;;;;;;8.13;1.90;;;;;;;0.47;71.02;101535.81;5590310;31;34187;-71
2022/01/18 01:09:06;;;;;;;7.35;2.10;;;;;;;0.48;70.70;101533.12;5590291;31;35439;-69
2022/01/18 01:12:11;;;;;;;6.75;2.08;;;;;;;0.35;71.91;101539.84;5590381;31;34313;-69
2022/01/18 01:15:17;;;;;;;5.60;1.87;;;;;;;0.40;71.43;101549.16;5590251;31;34480;-72
2022/01/18 01:32:16;;;;;;;9.20;1.55;;;;;;;0.34;72.29;101549.44;5590182;31;34337;-72
2022/01/18 01:35:09;;;;;;;12.18;2.20;;;;;;;0.23;73.14;101538.69;5590173;31;34138;-71
2022/01/18 01:41:49;;;;;;;7.25;1.55;;;;;;;0.13;73.98;101541.81;5590458;31;34823;-68
2022/01/18 01:44:52;;;;;;;6.10;1.48;;;;;;;0.19;73.47;101546.75;5589148;31;34208;-69
2022/01/18 01:47:55;;;;;;;5.00;1.60;;;;;;;0.25;73.78;101552.50;5588969;31;34217;-69
2022/01/18 01:51:03;;;;;;;8.50;1.77;;;;;;;0.18;73.98;101548.50;5589893;31;34221;-69
2022/01/18 01:54:08;;;;;;;8.48;1.50;;;;;;;0.13;74.57;101545.28;5589732;31;34233;-69
2022/01/18 01:57:11;;;;;;;7.00;1.60;;;;;;;0.17;74.54;101544.19;5589760;31;34819;-71
2022/01/18 02:00:17;;;;;;;5.28;1.83;;;;;;;0.10;74.84;101532.34;5589862;31;34888;-70
2022/01/18 02:03:20;;;;;;;6.57;1.87;;;;;;;0.20;74.40;101530.16;5589817;31;34227;-71
2022/01/18 02:06:24;;;;;;;6.60;1.83;;;;;;;0.24;74.26;101513.44;5589972;31;35375;-71
2022/01/18 02:09:26;;;;;;;7.22;2.05;;;;;;;0.26;74.01;101511.59;5589725;31;35496;-71
2022/01/18 02:12:29;;;;;;;7.32;1.90;;;;;;;0.25;74.47;101515.13;5589957;31;34345;-70
2022/01/18 02:15:39;;;;;;;6.32;2.08;;;;;;;0.25;73.79;101529.00;5589674;31;34277;-70
2022/01/18 02:22:04;;;;;;;6.53;1.85;;;;;;;0.30;73.79;101545.28;5589545;31;34352;-70
2022/01/18 02:25:07;;;;;;;6.28;1.73;;;;;;;0.29;73.83;101535.78;5589586;31;34272;-68
2022/01/18 02:28:11;;;;;;;10.55;1.73;;;;;;;0.19;74.22;101542.37;5589533;31;34860;-68
2022/01/18 02:31:14;;;;;;;4.53;1.42;;;;;;;0.22;74.42;101552.66;5589880;31;34499;-69
2022/01/18 02:34:19;;;;;;;9.30;1.98;;;;;;;0.12;74.62;101551.41;5589915;31;35403;-70
2022/01/18 02:37:22;;;;;;;5.90;1.77;;;;;;;0.12;74.90;101563.59;5589534;31;35411;-70
2022/01/18 02:40:24;;;;;;;5.57;1.55;;;;;;;0.10;75.42;101568.06;5589545;31;34295;-68
2022/01/18 02:43:50;;;;;;;8.70;2.35;;;;;;;0.04;75.64;101561.38;5589415;31;34243;-69
2022/01/18 02:46:53;;;;;;;8.30;1.95;;;;;;;-0.08;76.07;101575.81;5589348;31;35371;-69
2022/01/18 02:49:57;;;;;;;12.70;1.90;;;;;;;-0.15;77.38;101587.47;5589278;31;34876;-68
2022/01/18 02:52:59;;;;;;;7.15;1.83;;;;;;;-0.18;77.53;101582.37;5589124;31;34698;-69
2022/01/18 02:56:03;;;;;;;4.55;1.52;;;;;;;-0.19;77.97;101592.84;5589318;31;34160;-69
2022/01/18 02:59:14;;;;;;;5.65;1.40;;;;;;;-0.11;77.70;101594.22;5588694;31;34240;-69
2022/01/18 03:05:46;;;;;;;14.93;2.20;;;;;;;-0.26;78.06;101592.31;5589328;31;34868;-69
2022/01/18 03:08:48;;;;;;;10.00;2.10;;;;;;;-0.27;78.62;101602.78;5589210;31;34897;-69
2022/01/18 03:11:53;;;;;;;7.85;1.33;;;;;;;-0.23;78.77;101610.41;5589300;31;34233;-69
2022/01/18 03:14:56;;;;;;;8.45;1.80;;;;;;;-0.26;78.96;101618.38;5589489;31;34174;-68
2022/01/18 03:18:00;;;;;;;7.90;2.10;;;;;;;-0.33;79.47;101616.94;5589012;31;34133;-69
2022/01/18 03:21:03;;;;;;;6.60;1.73;;;;;;;-0.36;79.90;101624.91;5588884;31;34201;-68
2022/01/18 03:24:13;;;;;;;10.05;1.90;;;;;;;-0.24;79.29;101641.78;5588526;31;34250;-70
2022/01/18 03:30:41;;;;;;;5.82;1.85;;;;;;;-0.34;79.94;101663.97;5588817;31;34182;-73
2022/01/18 03:33:44;;;;;;;11.60;2.30;;;;;;;-0.35;80.54;101657.91;5589154;31;34873;-69
2022/01/18 03:36:48;;;;;;;11.52;2.15;;;;;;;-0.43;80.68;101666.03;5587886;31;34805;-69
2022/01/18 03:39:51;;;;;;;8.93;1.80;;;;;;;-0.39;80.78;101672.00;5588559;31;34637;-68
2022/01/18 03:42:55;;;;;;;6.87;1.70;;;;;;;-0.45;81.29;101675.72;5588588;31;34916;-69
2022/01/18 03:46:04;;;;;;;5.95;1.92;;;;;;;-0.48;81.28;101677.56;5588351;31;34608;-68
2022/01/18 03:49:07;;;;;;;6.57;1.70;;;;;;;-0.49;81.68;101686.34;5588564;31;34113;-70
2022/01/18 03:52:09;;;;;;;13.45;2.08;;;;;;;-0.49;81.54;101681.97;5588398;31;34437;-68
2022/01/18 03:55:15;;;;;;;6.68;1.67;;;;;;;-0.51;81.69;101685.53;5587701;31;34216;-68
2022/01/18 03:58:18;;;;;;;9.60;1.85;;;;;;;-0.46;81.20;101681.81;5588323;31;34667;-70
2022/01/18 04:01:21;;;;;;;2.70;1.27;;;;;;;-0.49;81.39;101684.56;5588153;31;34191;-68
2022/01/18 04:04:28;;;;;;;10.05;2.08;;;;;;;-0.40;81.18;101687.69;5588158;31;34580;-70
2022/01/18 04:07:30;;;;;;;8.95;2.30;;;;;;;-0.48;81.68;101693.22;5588268;31;34949;-69
2022/01/18 04:10:34;;;;;;;2.92;1.15;;;;;;;-0.45;81.20;101698.31;5588204;31;34251;-68
2022/01/18 04:13:36;;;;;;;9.13;2.25;;;;;;;-0.45;81.11;101713.97;5591033;31;34316;-69
2022/01/18 04:16:57;;;;;;;9.63;1.75;;;;;;;-0.47;80.93;101708.78;5590831;31;34247;-71
2022/01/18 04:29:45;;;;;;;12.02;2.10;;;;;;;-0.62;82.14;101730.28;5590901;31;34859;-68
2022/01/18 04:32:47;;;;;;;8.23;2.08;;;;;;;-0.61;82.20;101718.09;5590631;31;35573;-68
2022/01/18 04:35:50;;;;;;;6.80;2.37;;;;;;;-0.71;82.77;101722.00;5590677;31;34164;-68
2022/01/18 04:38:53;;;;;;;7.55;2.30;;;;;;;-0.63;82.29;101719.94;5590877;31;34404;-68
2022/01/18 04:41:56;;;;;;;7.95;2.30;;;;;;;-0.65;82.40;101732.19;5590511;31;34183;-67
2022/01/18 04:48:31;;;;;;;13.60;2.05;;;;;;;-0.56;81.52;101748.28;5590422;31;34213;-68
2022/01/18 04:51:34;;;;;;;5.95;1.85;;;;;;;-0.56;81.56;101750.03;5590685;31;35022;-68
2022/01/18 04:54:39;;;;;;;10.93;1.83;;;;;;;-0.62;81.73;101756.34;5590530;31;34144;-70
2022/01/18 04:57:54;;;;;;;8.80;1.92;;;;;;;-0.58;81.43;101757.91;5590310;31;34177;-68
2022/01/18 05:00:59;;;;;;;10.98;2.15;;;;;;;-0.59;81.74;101748.44;5590283;31;34182;-69
2022/01/18 05:04:03;;;;;;;8.07;1.80;;;;;;;-0.52;81.01;101757.66;5590248;31;34154;-69
2022/01/18 05:07:08;;;;;;;6.82;2.10;;;;;;;-0.52;80.83;101757.66;5590605;31;34248;-68
2022/01/18 05:10:11;;;;;;;9.45;2.00;;;;;;;-0.47;80.74;101763.53;5590111;31;34961;-68
2022/01/18 05:13:34;;;;;;;14.23;2.60;;;;;;;-0.53;81.40;101771.59;5590192;31;34278;-68
2022/01/18 05:23:02;;;;;;;10.95;2.20;;;;;;;-0.69;82.93;101777.53;5589838;31;34298;-69
2022/01/18 05:26:06;;;;;;;7.90;2.10;;;;;;;-0.72;83.16;101775.03;5590335;31;34274;-68
2022/01/18 05:29:09;;;;;;;11.45;2.47;;;;;;;-0.73;83.80;101778.56;5590079;31;34230;-68
2022/01/18 05:32:11;;;;;;;7.90;2.45;;;;;;;-0.83;84.09;101783.28;5589937;31;34174;-69
2022/01/18 05:35:15;;;;;;;10.25;2.53;;;;;;;-0.84;84.33;101781.59;5590290;31;34976;-70
2022/01/18 05:38:18;;;;;;;8.82;2.22;;;;;;;-0.85;84.42;101795.53;5590020;31;34226;-69
2022/01/18 05:41:21;;;;;;;8.27;2.42;;;;;;;-0.87;84.52;101784.31;5589841;31;34227;-69
2022/01/18 05:44:26;;;;;;;15.25;2.65;;;;;;;-0.89;84.75;101788.75;5590026;31;34255;-70
2022/01/18 05:47:29;;;;;;;8.93;2.55;;;;;;;-0.90;85.17;101800.91;5589689;31;34910;-69
2022/01/18 05:50:32;;;;;;;10.15;2.35;;;;;;;-0.88;84.92;101804.31;5589650;31;34310;-70
2022/01/18 05:53:35;;;;;;;12.70;2.75;;;;;;;-0.84;84.93;101806.78;5589820;31;34347;-69
2022/01/18 05:56:38;;;;;;;10.30;2.40;;;;;;;-0.83;84.91;101805.88;5589779;31;34674;-70
2022/01/18 05:59:45;;;;;;;10.23;2.20;;;;;;;-0.89;85.25;101804.38;5588870;31;34852;-69
2022/01/18 06:09:22;;;;;;;6.93;2.15;;;;;;;-0.91;86.09;101833.06;5589657;31;34572;-70
2022/01/18 06:12:29;;;;;;;10.88;2.75;;;;;;;-0.86;86.51;101827.69;5589648;31;34266;-71
2022/01/18 06:15:31;;;;;;;8.98;2.35;;;;;;;-0.87;86.95;101836.41;5589742;31;34223;-71
2022/01/18 06:18:34;;;;;;;10.75;2.55;;;;;;;-0.81;86.99;101835.31;5589224;31;34426;-71
2022/01/18 06:21:38;;;;;;;15.95;3.05;;;;;;;-0.85;87.13;101842.41;5589455;31;34808;-69
2022/01/18 06:24:40;;;;;;;9.80;2.10;;;;;;;-0.84;87.20;101843.28;5589311;31;34904;-70
2022/01/18 06:27:43;;;;;;;7.70;2.50;;;;;;;-0.78;87.34;101820.44;5589289;31;34174;-70
2022/01/18 06:30:46;;;;;;;9.48;2.50;;;;;;;-0.78;87.38;101820.44;5589666;31;34139;-69
2022/01/18 06:33:48;;;;;;;10.45;2.35;;;;;;;-0.80;87.75;101824.00;5588391;31;35064;-70
2022/01/18 06:36:57;;;;;;;10.52;2.72;;;;;;;-0.86;88.33;101819.87;5589178;31;34167;-70
2022/01/18 06:40:03;;;;;;;9.82;2.58;;;;;;;-0.81;88.09;101832.72;5589489;31;34686;-72
2022/01/18 06:43:06;;;;;;;9.38;2.47;;;;;;;-0.80;87.80;101831.81;5589522;31;34835;-70
2022/01/18 06:46:10;;;;;;;11.52;2.30;;;;;;;-0.80;88.10;101837.88;5588929;31;34810;-70
2022/01/18 06:49:12;;;;;;;9.20;2.58;;;;;;;-0.78;87.95;101841.28;5588676;31;34921;-70
2022/01/18 06:52:15;;;;;;;7.68;2.40;;;;;;;-0.67;87.44;101844.28;5589199;31;34258;-70
2022/01/18 06:55:18;;;;;;;15.52;3.85;;;;;;;-0.68;87.40;101850.44;5589172;31;34845;-70
2022/01/18 06:58:21;;;;;;;6.10;2.05;;;;;;;-0.71;87.99;101844.47;5588808;31;34246;-69
2022/01/18 07:01:24;;;;;;;13.40;2.90;;;;;;;-0.65;87.81;101846.84;5588713;31;34896;-71
2022/01/18 07:04:28;;;;;;;11.80;2.33;;;;;;;-0.68;88.00;101836.56;5588998;31;34201;-70
2022/01/18 07:07:31;;;;;;;7.82;2.08;;;;;;;-0.64;88.24;101851.16;5589183;31;34910;-70
2022/01/18 07:10:34;;;;;;;8.18;2.37;;;;;;;-0.64;88.41;101852.00;5588852;31;34895;-69
2022/01/18 07:13:37;;;;;;;10.60;2.50;;;;;;;-0.61;88.41;101846.66;5588638;31;34231;-71
2022/01/18 07:16:41;;;;;;;9.82;2.85;;;;;;;-0.58;88.27;101854.34;5588885;31;34591;-70
2022/01/18 07:19:44;;;;;;;8.88;2.35;;;;;;;-0.52;87.98;101856.72;5588517;31;34271;-70
2022/01/18 07:22:48;;;;;;;7.62;2.25;;;;;;;-0.45;87.92;101846.91;5588778;31;34858;-73
2022/01/18 07:25:52;;;;;;;10.80;3.03;;;;;;;-0.43;87.64;101832.03;5588579;31;34183;-70
2022/01/18 07:28:55;;;;;;;12.77;2.70;;;;;;;-0.39;87.51;101830.19;5588292;31;35015;-69
2022/01/18 07:31:58;;;;;;;8.93;2.55;;;;;;;-0.40;87.42;101836.28;5588773;31;34834;-70
2022/01/18 07:35:02;;;;;;;9.25;2.33;;;;;;;-0.43;87.74;101832.88;5588414;31;34214;-69
2022/01/18 07:38:05;;;;;;;11.27;2.55;;;;;;;-0.36;87.38;101843.94;5588507;31;34322;-69
2022/01/18 07:41:09;;;;;;;5.97;2.28;;;;;;;-0.31;87.34;101841.97;5587387;31;34994;-69
2022/01/18 07:44:12;;;;;;;15.82;3.33;;;;;;;-0.29;87.10;101862.78;5588741;31;35482;-70
2022/01/18 07:47:15;;;;;;;10.40;2.90;;;;;;;-0.29;87.49;101855.78;5590623;31;34626;-70
2022/01/18 07:50:20;;;;;;;11.15;3.03;;;;;;;-0.30;87.43;101868.91;5590565;31;34130;-72
2022/01/18 07:53:23;;;;;;;7.78;2.30;;;;;;;-0.24;87.51;101889.53;5590460;31;34234;-71
2022/01/18 07:56:26;;;;;;;12.10;2.70;;;;;;;-0.22;87.04;101898.97;5589945;31;34315;-70
2022/01/18 07:59:28;;;;;;;9.52;2.47;;;;;;;-0.19;86.99;101897.97;5590456;31;34290;-68
2022/01/18 08:02:32;;;;;;;13.27;2.92;;;;;;;-0.16;86.38;101900.50;5590712;31;34315;-71
2022/01/18 08:05:35;;;;;;;13.68;2.40;;;;;;;-0.19;86.51;101905.81;5590559;31;34310;-70
2022/01/18 08:08:43;;;;;;;13.73;3.65;;;;;;;-0.15;86.64;101902.19;5590720;31;34120;-70
2022/01/18 08:11:47;;;;;;;16.05;2.87;;;;;;;-0.11;86.20;101925.47;5590823;31;34147;-72
2022/01/18 08:14:50;;;;;;;8.32;2.72;;;;;;;-0.09;86.23;101939.28;5590311;31;34886;-70
2022/01/18 08:18:14;;;;;;;16.20;2.80;;;;;;;-0.02;85.68;101935.53;5590771;31;34519;-70
2022/01/18 08:21:18;;;;;;;13.65;2.95;;;;;;;-0.03;85.86;101935.59;5590517;31;34525;-70
2022/01/18 08:24:22;;;;;;;8.23;2.95;;;;;;;0.03;85.71;101947.53;5590628;31;34379;-72
2022/01/18 08:27:25;;;;;;;10.73;3.17;;;;;;;0.08;85.75;101925.56;5590486;31;34645;-72
2022/01/18 08:30:28;;;;;;;13.68;2.40;;;;;;;0.10;85.57;101943.78;5590387;31;34727;-71
2022/01/18 08:33:32;;;;;;;10.07;2.28;;;;;;;0.17;84.77;101956.50;5590428;31;35479;-71
2022/01/18 08:36:38;;;;;;;15.15;2.58;;;;;;;0.15;84.68;101957.47;5590585;31;35018;-71
2022/01/18 08:39:41;;;;;;;18.33;2.85;;;;;;;0.16;84.79;101967.84;5590413;31;35568;-71
2022/01/18 08:42:44;;;;;;;11.07;2.65;;;;;;;0.19;84.62;101972.97;5589664;31;34639;-72
2022/01/18 08:45:47;;;;;;;13.18;3.12;;;;;;;0.18;84.71;101975.63;5590317;31;34927;-71
2022/01/18 08:48:50;;;;;;;18.48;2.83;;;;;;;0.27;84.34;101970.03;5590132;31;34350;-71
2022/01/18 08:51:53;;;;;;;9.20;3.03;;;;;;;0.33;84.23;101968.00;5590385;31;34803;-72
2022/01/18 08:54:56;;;;;;;13.43;3.20;;;;;;;0.35;84.32;101987.06;5590207;31;34221;-72
2022/01/18 08:57:58;;;;;;;16.35;4.80;;;;;;;0.43;83.57;101978.91;5589638;31;34228;-72
2022/01/18 09:01:04;;;;;;;10.68;2.90;;;;;;;0.40;83.19;101998.16;5590314;31;34828;-71
2022/01/18 09:04:07;;;;;;;15.48;3.28;;;;;;;0.55;83.39;102003.66;5590205;31;34876;-71
2022/01/18 09:07:10;;;;;;;12.00;3.00;;;;;;;0.54;83.04;102001.94;5576733;31;34292;-70
2022/01/18 09:10:13;;;;;;;16.23;3.12;;;;;;;0.58;82.92;101998.31;5590192;31;34288;-71
2022/01/18 09:13:16;;;;;;;21.35;3.58;;;;;;;0.71;82.51;102004.72;5590179;31;34298;-71
2022/01/18 09:16:20;;;;;;;9.63;3.03;;;;;;;0.74;81.99;101994.97;5589820;31;34785;-71
2022/01/18 09:19:23;;;;;;;14.48;3.50;;;;;;;0.79;82.25;101994.78;5590050;31;34282;-71
2022/01/18 09:22:26;;;;;;;11.23;3.05;;;;;;;0.84;81.59;102006.72;5589943;31;34559;-71
2022/01/18 09:25:30;;;;;;;11.18;2.75;;;;;;;0.99;81.39;102020.03;5589708;31;34220;-71
2022/01/18 09:28:32;;;;;;;11.63;3.10;;;;;;;0.97;80.95;102011.44;5589829;31;34205;-72
2022/01/18 09:31:38;;;;;;;15.00;3.30;;;;;;;1.11;80.31;102017.75;5589837;31;34351;-71
2022/01/18 09:34:41;;;;;;;18.02;3.40;;;;;;;1.09;80.36;102006.50;5590313;31;34252;-71
2022/01/18 09:37:45;;;;;;;14.32;2.90;;;;;;;1.23;79.79;102008.50;5589855;31;34147;-71
2022/01/18 09:40:49;;;;;;;9.38;2.80;;;;;;;1.21;79.73;102005.97;5589787;31;34492;-72
2022/01/18 09:43:52;;;;;;;9.30;2.62;;;;;;;1.27;79.62;102024.00;5589521;31;34436;-71
2022/01/18 09:46:54;;;;;;;11.20;2.70;;;;;;;1.30;79.47;102026.50;5589557;31;34246;-73
2022/01/18 09:49:58;;;;;;;16.77;3.00;;;;;;;1.38;79.02;102020.03;5589485;31;34918;-71
2022/01/18 09:53:04;;;;;;;14.07;3.20;;;;;;;1.38;78.96;102041.81;5589077;31;34145;-70
2022/01/18 09:56:08;;;;;;;16.98;3.03;;;;;;;1.39;79.38;102033.06;5589244;31;34333;-71
2022/01/18 09:59:11;;;;;;;13.32;3.10;;;;;;;1.44;79.13;102011.94;5589546;31;34830;-71
2022/01/18 10:02:14;;;;;;;11.40;3.17;;;;;;;1.42;79.34;102029.44;5589776;31;34234;-72
2022/01/18 10:05:35;;;;;;;11.20;2.15;;;;;;;1.53;78.43;102040.28;5589567;31;34350;-69
2022/01/18 10:08:46;;;;;;;9.90;2.42;;;;;;;1.57;78.70;102031.38;5588743;31;34191;-72
2022/01/18 10:12:08;;;;;;;13.98;2.60;;;;;;;1.64;77.72;102033.66;5589596;31;34147;-70
2022/01/18 10:15:11;;;;;;;12.75;3.40;;;;;;;1.70;77.70;102041.19;5589735;31;34219;-69
2022/01/18 10:18:14;;;;;;;12.35;2.65;;;;;;;1.66;77.93;102033.56;5589766;31;35419;-70
2022/01/18 10:21:23;;;;;;;12.63;2.72;;;;;;;1.72;77.55;102034.13;5589241;31;34922;-70
2022/01/18 10:24:28;;;;;;;11.20;2.60;;;;;;;1.73;77.07;102021.91;5589410;31;34193;-69
2022/01/18 10:29:11;;;;;;;10.07;2.17;;;;;;;1.92;76.92;102019.28;5621118;31;180720;-73
2022/01/18 10:32:30;;;;;;;7.90;2.80;;;;;;;1.93;75.84;102026.22;5604630;31;34747;-70
2022/01/18 10:35:33;;;;;;;11.18;2.40;;;;;;;1.91;76.22;102018.44;5604255;31;33800;-74
2022/01/18 10:38:42;;;;;;;11.27;2.72;;;;;;;1.90;75.46;102008.88;5604265;31;34450;-72
2022/01/18 10:41:44;;;;;;;10.90;2.75;;;;;;;2.06;75.70;102009.00;5607610;31;33820;-72
2022/01/18 10:45:28;;;;;;;14.25;2.40;;;;;;;2.03;75.27;102011.78;5606297;31;34136;-70
2022/01/18 10:48:31;;;;;;;14.18;3.62;;;;;;;2.06;74.82;102025.56;5602772;31;34541;-72
2022/01/18 10:51:40;;;;;;;6.45;2.22;;;;;;;1.98;75.68;102025.09;5603855;31;33804;-70
2022/01/18 10:54:50;;;;;;;8.50;2.42;;;;;;;2.24;74.76;102028.19;5604177;31;33860;-70
2022/01/18 10:57:54;;;;;;;8.95;2.70;;;;;;;2.07;74.07;102015.94;5603767;31;33809;-72
2022/01/18 11:01:15;;;;;;;10.98;2.50;;;;;;;2.24;73.44;102023.81;5602934;31;34672;-71
2022/01/18 11:04:19;;;;;;;10.25;2.50;;;;;;;2.16;73.41;102029.44;5603862;31;33755;-72
2022/01/18 11:07:25;;;;;;;12.70;2.60;;;;;;;2.18;73.64;102034.56;5603955;31;34485;-72
2022/01/18 11:10:32;;;;;;;14.35;2.67;;;;;;;2.32;73.04;102034.78;5604254;31;35043;-70
2022/01/18 11:14:01;;;;;;;10.13;2.17;;;;;;;2.34;73.27;102032.91;5603248;31;33834;-72
2022/01/18 11:17:06;;;;;;;14.68;2.47;;;;;;;2.48;72.93;102012.13;5603938;31;34437;-72
2022/01/18 11:20:09;;;;;;;9.55;2.35;;;;;;;2.45;72.89;102014.06;5604002;31;33929;-73
2022/01/18 11:23:13;;;;;;;10.98;2.67;;;;;;;2.43;72.60;102021.13;5603816;31;35073;-71
2022/01/18 11:26:18;;;;;;;14.52;2.90;;;;;;;2.31;72.81;102027.00;5602893;31;33895;-72
2022/01/18 11:29:21;;;;;;;12.55;2.70;;;;;;;2.38;73.42;102023.97;5603899;31;33827;-69
2022/01/18 11:32:26;;;;;;;10.00;2.30;;;;;;;2.32;73.25;102016.44;5604034;31;33900;-70
2022/01/18 11:36:10;;;;;;;13.77;2.83;;;;;;;2.41;73.58;102018.59;5603433;31;34562;-71
2022/01/18 11:39:17;;;;;;;12.35;2.40;;;;;;;2.45;72.65;102025.38;5595387;31;33821;-72
2022/01/18 11:42:20;;;;;;;11.93;2.12;;;;;;;2.56;72.19;102025.72;5589734;31;33871;-70
2022/01/18 11:45:37;;;;;;;10.43;2.42;;;;;;;2.47;72.23;102018.28;5590701;31;34024;-70
2022/01/18 11:48:44;;;;;;;9.73;2.90;;;;;;;2.61;71.73;102047.25;5590511;31;33921;-71
2022/01/18 11:51:58;;;;;;;13.30;2.55;;;;;;;2.61;71.12;102046.44;5590853;31;35191;-72
2022/01/18 11:55:03;;;;;;;8.75;2.28;;;;;;;2.52;71.70;102047.72;5590344;31;34381;-71
2022/01/18 11:58:12;;;;;;;9.63;2.30;;;;;;;2.61;70.79;102047.25;5590418;31;34475;-73
2022/01/18 12:01:18;;;;;;;13.38;2.47;;;;;;;2.56;71.33;102054.53;5590434;31;34071;-70
2022/01/18 12:04:49;;;;;;;12.57;2.80;;;;;;;2.70;70.92;102043.34;5590254;31;33911;-74
2022/01/18 12:07:54;;;;;;;6.87;2.30;;;;;;;2.71;71.70;102038.97;5590297;31;33781;-72
2022/01/18 12:10:59;;;;;;;8.25;2.78;;;;;;;2.76;71.45;102026.47;5590475;31;34974;-72
2022/01/18 12:14:04;;;;;;;10.75;2.83;;;;;;;2.90;70.63;102016.16;5589892;31;33858;-73
2022/01/18 12:17:15;;;;;;;12.57;2.45;;;;;;;2.85;70.92;102010.28;5590114;31;34294;-71
2022/01/18 12:20:44;;;;;;;9.40;2.20;;;;;;;3.12;69.84;102011.47;5589348;31;33967;-72
2022/01/18 12:23:47;;;;;;;9.60;2.40;;;;;;;3.58;67.10;102007.25;5590250;31;34551;-73
2022/01/18 12:26:59;;;;;;;10.27;2.35;;;;;;;3.33;67.19;102022.63;5589915;31;33955;-73
2022/01/18 12:30:15;;;;;;;7.75;2.20;;;;;;;3.41;66.53;102020.41;5590135;31;34063;-73
2022/01/18 12:33:19;;;;;;;11.55;2.92;;;;;;;3.47;66.38;102027.97;5590039;31;33805;-72
2022/01/18 12:36:29;;;;;;;10.20;2.60;;;;;;;3.54;66.41;102017.97;5590390;31;33844;-73
2022/01/18 12:39:53;;;;;;;10.40;2.40;;;;;;;3.66;66.39;102036.53;5589281;31;34442;-72
2022/01/18 12:46:15;;;;;;;10.50;2.20;;;;;;;3.76;65.79;102036.91;5589979;31;34462;-72
2022/01/18 12:49:19;;;;;;;10.38;2.08;;;;;;;3.70;65.23;102034.59;5589783;31;34164;-71
2022/01/18 12:52:52;;;;;;;10.65;3.12;;;;;;;3.55;66.23;102033.66;5589484;31;34524;-71
2022/01/18 12:56:00;;;;;;;6.15;1.85;;;;;;;3.85;65.39;102026.72;5589910;31;33783;-73
2022/01/18 12:59:04;;;;;;;4.55;1.70;;;;;;;3.96;64.60;102035.81;5591676;31;33797;-73
2022/01/18 13:02:19;;;;;;;9.73;2.30;;;;;;;3.94;64.69;102043.75;5589731;31;34989;-73
2022/01/18 13:05:39;;;;;;;10.75;2.58;;;;;;;3.78;64.79;102040.25;5589349;31;33950;-74
2022/01/18 13:08:47;;;;;;;11.37;2.27;;;;;;;3.79;64.64;102039.34;5589707;31;33827;-70
2022/01/18 13:12:03;;;;;;;6.93;2.10;;;;;;;3.72;65.37;102032.75;5589929;31;33790;-71
2022/01/18 13:15:13;;;;;;;7.65;1.90;;;;;;;3.78;65.20;102040.25;5589605;31;33884;-73
2022/01/18 13:25:08;;;;;;;8.80;2.55;;;;;;;3.27;66.56;102041.28;5589506;31;34222;-72
2022/01/18 13:28:11;;;;;;;12.80;2.72;;;;;;;3.21;67.55;102038.97;5589033;31;33849;-72
2022/01/18 13:31:23;;;;;;;9.20;2.58;;;;;;;3.14;67.90;102041.09;5589473;31;34533;-70
2022/01/18 13:34:35;;;;;;;15.07;2.85;;;;;;;3.06;68.05;102044.09;5589277;31;34521;-71
2022/01/18 13:37:38;;;;;;;12.65;2.53;;;;;;;2.95;68.71;102046.41;5588313;31;33919;-72
2022/01/18 13:40:45;;;;;;;9.52;2.28;;;;;;;3.07;68.25;102060.69;5589200;31;34414;-73
2022/01/18 13:43:48;;;;;;;12.65;2.50;;;;;;;3.03;68.77;102059.16;5589412;31;33913;-71
2022/01/18 13:46:51;;;;;;;10.73;3.10;;;;;;;2.94;68.42;102065.72;5589250;31;34538;-71
2022/01/18 13:49:54;;;;;;;12.37;2.90;;;;;;;2.91;68.88;102050.13;5589439;31;33938;-71
2022/01/18 13:53:21;;;;;;;9.30;1.95;;;;;;;2.87;68.52;102063.47;5589213;31;34487;-72
2022/01/18 13:56:26;;;;;;;14.05;2.12;;;;;;;2.93;67.80;102081.50;5581382;31;34965;-71
2022/01/18 13:59:29;;;;;;;10.70;2.53;;;;;;;3.07;67.41;102081.66;5589438;31;34175;-71
2022/01/18 14:02:42;;;;;;;15.93;2.42;;;;;;;3.20;66.82;102074.84;5588113;31;35097;-71
2022/01/18 14:05:48;;;;;;;11.95;2.42;;;;;;;3.25;66.80;102078.06;5588595;31;34536;-72
2022/01/18 14:08:53;;;;;;;10.20;2.10;;;;;;;3.52;65.63;102094.16;5588446;31;33861;-72
2022/01/18 14:11:57;;;;;;;7.53;2.08;;;;;;;3.46;64.79;102079.59;5588491;31;33722;-71
2022/01/18 14:14:59;;;;;;;13.62;2.12;;;;;;;3.34;65.85;102082.03;5589031;31;34408;-71
2022/01/18 14:18:03;;;;;;;8.25;2.45;;;;;;;3.18;66.14;102078.50;5588085;31;34489;-72
2022/01/18 14:21:32;;;;;;;9.25;2.15;;;;;;;3.02;66.11;102074.03;5588858;31;35167;-72
2022/01/18 14:24:38;;;;;;;15.38;2.30;;;;;;;3.02;66.01;102067.94;5588648;31;33944;-71
2022/01/18 14:27:43;;;;;;;11.50;2.50;;;;;;;2.98;66.40;102063.78;5587458;31;34744;-71
2022/01/18 14:30:47;;;;;;;14.30;2.92;;;;;;;2.85;66.93;102054.84;5588617;31;33883;-71
2022/01/18 14:33:50;;;;;;;12.90;2.60;;;;;;;2.83;66.96;102061.94;5588724;31;33857;-71
2022/01/18 14:36:55;;;;;;;7.20;2.50;;;;;;;2.81;67.16;102061.16;5588654;31;33716;-70
2022/01/18 14:40:00;;;;;;;12.50;2.75;;;;;;;2.93;66.33;102073.66;5588061;31;34549;-71
2022/01/18 14:43:12;;;;;;;14.70;2.75;;;;;;;2.74;67.11;102070.25;5588389;31;33910;-71
2022/01/18 14:46:26;;;;;;;5.45;1.95;;;;;;;2.73;67.43;102065.94;5588258;31;34160;-71
2022/01/18 14:49:29;;;;;;;13.35;2.60;;;;;;;2.68;67.42;102070.53;5588199;31;33754;-70
2022/01/18 14:52:32;;;;;;;8.88;2.55;;;;;;;2.66;67.42;102077.66;5587946;31;33992;-72
2022/01/18 14:55:35;;;;;;;13.07;2.90;;;;;;;2.55;67.88;102072.94;5588217;31;33846;-71
2022/01/18 14:58:38;;;;;;;7.95;2.75;;;;;;;2.55;68.41;102083.41;5587920;31;33897;-72
2022/01/18 15:01:41;;;;;;;11.35;3.33;;;;;;;2.42;69.11;102079.69;5588271;31;33900;-70
2022/01/18 15:04:44;;;;;;;8.90;2.17;;;;;;;2.39;69.36;102080.69;5587758;31;33896;-71
2022/01/18 15:07:47;;;;;;;12.82;3.25;;;;;;;2.41;69.52;102085.84;5587027;31;33998;-71
2022/01/18 15:10:50;;;;;;;13.98;2.72;;;;;;;2.30;69.69;102075.88;5588076;31;34315;-71
2022/01/18 15:13:53;;;;;;;9.93;2.78;;;;;;;2.32;69.79;102076.69;5588485;31;33902;-71
2022/01/18 15:16:56;;;;;;;15.18;2.85;;;;;;;2.16;70.58;102075.69;5590687;31;34018;-70
2022/01/18 15:19:59;;;;;;;12.98;3.37;;;;;;;2.14;70.40;102074.91;5590215;31;33822;-70
2022/01/18 15:23:02;;;;;;;13.30;3.35;;;;;;;2.07;70.90;102081.37;5589941;31;33948;-70
2022/01/18 15:26:25;;;;;;;9.23;3.05;;;;;;;1.96;71.64;102094.09;5590680;31;34359;-70
2022/01/18 15:29:33;;;;;;;11.52;3.17;;;;;;;1.95;71.55;102098.47;5590585;31;33761;-70
2022/01/18 15:32:38;;;;;;;11.82;3.12;;;;;;;1.80;71.94;102114.87;5590394;31;33851;-71
2022/01/18 15:35:40;;;;;;;11.27;3.00;;;;;;;1.74;72.34;102121.22;5590447;31;34494;-70
2022/01/18 15:38:44;;;;;;;14.20;3.10;;;;;;;1.75;72.52;102135.16;5590286;31;34025;-70
2022/01/18 15:41:47;;;;;;;14.85;3.65;;;;;;;1.82;72.52;102128.75;5590602;31;35246;-70